Iepe, Brazil
Current Conditions -  °F | °C
As of 11:00 AM on Wednesday 26 Nov 2014 (Local Time) from SBDN Reporting Station
Broken Clouds Broken Clouds  
Wind Chill: 81°   Ceiling: 5000
Heat Index: 83°   Visibility: 6mi
Dew Point: 68°   Wind: 8mph
Humidity: 65%   Direction: 270°W
Pressure: 29.83"   Gusts: NA
Location:  22.64°S, 51.11°W
Report Text: SBDN 261300Z 27007KT 9999 SCT020 BKN050 27/20 Q1010
Loading
Personal Weather Stations






























Interactive Weather Map New forecast layout! Learn more

10-Day Weather Forecast

Advertisements
Track Severe Weather on mobile